sensor_id;sensor_type;location;lat;lon;timestamp;P1;durP1;ratioP1;P2;durP2;ratioP2
13469;SDS011;6807;48.682;9.032;2023-04-03T00:01:38;4.38;;;2.78;;
13469;SDS011;6807;48.682;9.032;2023-04-03T00:04:05;3.65;;;3.05;;
13469;SDS011;6807;48.682;9.032;2023-04-03T00:06:32;5.57;;;3.22;;
13469;SDS011;6807;48.682;9.032;2023-04-03T00:09:00;2.38;;;2.20;;
13469;SDS011;6807;48.682;9.032;2023-04-03T00:11:27;3.67;;;3.03;;
13469;SDS011;6807;48.682;9.032;2023-04-03T00:13:54;3.60;;;2.90;;
13469;SDS011;6807;48.682;9.032;2023-04-03T00:16:22;3.58;;;3.28;;
13469;SDS011;6807;48.682;9.032;2023-04-03T00:18:50;4.25;;;3.33;;
13469;SDS011;6807;48.682;9.032;2023-04-03T00:21:17;5.13;;;3.00;;
13469;SDS011;6807;48.682;9.032;2023-04-03T00:23:45;3.28;;;2.92;;
13469;SDS011;6807;48.682;9.032;2023-04-03T00:26:12;3.65;;;3.25;;
13469;SDS011;6807;48.682;9.032;2023-04-03T00:28:39;3.83;;;3.33;;
13469;SDS011;6807;48.682;9.032;2023-04-03T00:31:07;5.00;;;3.10;;
13469;SDS011;6807;48.682;9.032;2023-04-03T00:33:34;3.45;;;2.70;;
13469;SDS011;6807;48.682;9.032;2023-04-03T00:36:06;3.88;;;3.47;;
13469;SDS011;6807;48.682;9.032;2023-04-03T00:38:33;4.00;;;3.40;;
13469;SDS011;6807;48.682;9.032;2023-04-03T00:41:01;3.70;;;2.85;;
13469;SDS011;6807;48.682;9.032;2023-04-03T00:43:28;4.55;;;3.00;;
13469;SDS011;6807;48.682;9.032;2023-04-03T00:45:56;3.75;;;3.35;;
13469;SDS011;6807;48.682;9.032;2023-04-03T00:48:25;3.17;;;2.88;;
13469;SDS011;6807;48.682;9.032;2023-04-03T00:50:53;3.90;;;3.30;;
13469;SDS011;6807;48.682;9.032;2023-04-03T00:53:23;3.22;;;2.88;;
13469;SDS011;6807;48.682;9.032;2023-04-03T00:55:52;3.58;;;3.10;;
13469;SDS011;6807;48.682;9.032;2023-04-03T00:58:20;3.90;;;3.20;;
13469;SDS011;6807;48.682;9.032;2023-04-03T01:00:50;3.90;;;3.08;;
13469;SDS011;6807;48.682;9.032;2023-04-03T01:03:21;4.22;;;3.30;;
13469;SDS011;6807;48.682;9.032;2023-04-03T01:05:48;2.80;;;2.60;;
13469;SDS011;6807;48.682;9.032;2023-04-03T01:08:15;3.63;;;3.20;;
13469;SDS011;6807;48.682;9.032;2023-04-03T01:10:44;3.38;;;2.60;;
13469;SDS011;6807;48.682;9.032;2023-04-03T01:13:19;3.45;;;3.15;;
13469;SDS011;6807;48.682;9.032;2023-04-03T01:15:46;3.38;;;3.08;;
13469;SDS011;6807;48.682;9.032;2023-04-03T01:18:13;4.80;;;3.00;;
13469;SDS011;6807;48.682;9.032;2023-04-03T01:23:44;4.05;;;3.55;;
13469;SDS011;6807;48.682;9.032;2023-04-03T01:26:16;3.15;;;2.80;;
13469;SDS011;6807;48.682;9.032;2023-04-03T01:28:44;6.00;;;3.22;;
13469;SDS011;6807;48.682;9.032;2023-04-03T01:31:13;4.07;;;2.90;;
13469;SDS011;6807;48.682;9.032;2023-04-03T01:33:43;3.22;;;2.92;;
13469;SDS011;6807;48.682;9.032;2023-04-03T01:36:13;4.20;;;3.15;;
13469;SDS011;6807;48.682;9.032;2023-04-03T01:38:40;4.35;;;3.15;;
13469;SDS011;6807;48.682;9.032;2023-04-03T01:41:07;3.53;;;3.22;;
13469;SDS011;6807;48.682;9.032;2023-04-03T01:43:35;3.17;;;2.88;;
13469;SDS011;6807;48.682;9.032;2023-04-03T01:46:02;5.78;;;3.33;;
13469;SDS011;6807;48.682;9.032;2023-04-03T01:48:29;4.97;;;3.17;;
13469;SDS011;6807;48.682;9.032;2023-04-03T01:50:58;5.75;;;2.90;;
13469;SDS011;6807;48.682;9.032;2023-04-03T01:53:25;3.65;;;2.95;;
13469;SDS011;6807;48.682;9.032;2023-04-03T01:55:52;4.40;;;3.00;;
13469;SDS011;6807;48.682;9.032;2023-04-03T01:58:19;3.38;;;3.00;;
13469;SDS011;6807;48.682;9.032;2023-04-03T02:00:46;3.75;;;2.92;;
13469;SDS011;6807;48.682;9.032;2023-04-03T02:03:14;3.05;;;2.85;;
13469;SDS011;6807;48.682;9.032;2023-04-03T02:05:41;3.65;;;3.00;;
13469;SDS011;6807;48.682;9.032;2023-04-03T02:08:09;3.13;;;2.83;;
13469;SDS011;6807;48.682;9.032;2023-04-03T02:10:38;4.35;;;3.88;;
13469;SDS011;6807;48.682;9.032;2023-04-03T02:13:05;6.22;;;3.00;;
13469;SDS011;6807;48.682;9.032;2023-04-03T02:15:32;3.42;;;2.92;;
13469;SDS011;6807;48.682;9.032;2023-04-03T02:17:59;4.15;;;3.45;;
13469;SDS011;6807;48.682;9.032;2023-04-03T02:20:26;2.88;;;2.60;;
13469;SDS011;6807;48.682;9.032;2023-04-03T02:22:54;5.00;;;3.95;;
13469;SDS011;6807;48.682;9.032;2023-04-03T02:25:22;3.30;;;3.00;;
13469;SDS011;6807;48.682;9.032;2023-04-03T02:27:50;3.00;;;2.67;;
13469;SDS011;6807;48.682;9.032;2023-04-03T02:30:17;5.75;;;2.95;;
13469;SDS011;6807;48.682;9.032;2023-04-03T02:32:44;4.43;;;2.90;;
13469;SDS011;6807;48.682;9.032;2023-04-03T02:35:11;5.07;;;3.13;;
13469;SDS011;6807;48.682;9.032;2023-04-03T02:37:39;3.33;;;3.03;;
13469;SDS011;6807;48.682;9.032;2023-04-03T02:40:07;4.22;;;3.25;;
13469;SDS011;6807;48.682;9.032;2023-04-03T02:42:37;3.95;;;3.22;;
13469;SDS011;6807;48.682;9.032;2023-04-03T02:45:05;3.03;;;2.78;;
13469;SDS011;6807;48.682;9.032;2023-04-03T02:47:32;3.97;;;3.00;;
13469;SDS011;6807;48.682;9.032;2023-04-03T02:50:00;3.47;;;3.13;;
13469;SDS011;6807;48.682;9.032;2023-04-03T02:52:27;3.60;;;2.70;;
13469;SDS011;6807;48.682;9.032;2023-04-03T02:54:54;4.20;;;3.20;;
13469;SDS011;6807;48.682;9.032;2023-04-03T02:57:21;5.00;;;3.15;;
13469;SDS011;6807;48.682;9.032;2023-04-03T02:59:50;4.80;;;3.03;;
13469;SDS011;6807;48.682;9.032;2023-04-03T03:02:17;4.13;;;3.17;;
13469;SDS011;6807;48.682;9.032;2023-04-03T03:04:44;4.57;;;3.28;;
13469;SDS011;6807;48.682;9.032;2023-04-03T03:07:11;4.05;;;2.97;;
13469;SDS011;6807;48.682;9.032;2023-04-03T03:09:39;3.25;;;2.92;;
13469;SDS011;6807;48.682;9.032;2023-04-03T03:12:06;3.55;;;3.25;;
13469;SDS011;6807;48.682;9.032;2023-04-03T03:14:33;2.90;;;2.70;;
13469;SDS011;6807;48.682;9.032;2023-04-03T03:17:02;3.33;;;2.95;;
13469;SDS011;6807;48.682;9.032;2023-04-03T03:19:29;3.65;;;3.30;;
13469;SDS011;6807;48.682;9.032;2023-04-03T03:21:56;3.17;;;2.88;;
13469;SDS011;6807;48.682;9.032;2023-04-03T03:24:23;3.88;;;3.00;;
13469;SDS011;6807;48.682;9.032;2023-04-03T03:26:51;4.47;;;3.28;;
13469;SDS011;6807;48.682;9.032;2023-04-03T03:29:18;3.47;;;3.17;;
13469;SDS011;6807;48.682;9.032;2023-04-03T03:31:45;3.92;;;2.95;;
13469;SDS011;6807;48.682;9.032;2023-04-03T03:34:14;3.60;;;3.30;;
13469;SDS011;6807;48.682;9.032;2023-04-03T03:36:41;3.20;;;2.90;;
13469;SDS011;6807;48.682;9.032;2023-04-03T03:39:09;6.10;;;3.65;;
13469;SDS011;6807;48.682;9.032;2023-04-03T03:41:36;4.80;;;2.85;;
13469;SDS011;6807;48.682;9.032;2023-04-03T03:44:03;3.38;;;3.03;;
13469;SDS011;6807;48.682;9.032;2023-04-03T03:46:31;4.88;;;3.30;;
13469;SDS011;6807;48.682;9.032;2023-04-03T03:48:58;4.88;;;3.03;;
13469;SDS011;6807;48.682;9.032;2023-04-03T03:51:26;4.53;;;3.10;;
13469;SDS011;6807;48.682;9.032;2023-04-03T03:53:54;3.40;;;3.10;;
13469;SDS011;6807;48.682;9.032;2023-04-03T03:56:21;4.00;;;3.10;;
13469;SDS011;6807;48.682;9.032;2023-04-03T03:58:48;4.10;;;3.10;;
13469;SDS011;6807;48.682;9.032;2023-04-03T04:01:15;3.42;;;2.90;;
13469;SDS011;6807;48.682;9.032;2023-04-03T04:03:43;6.15;;;2.88;;
13469;SDS011;6807;48.682;9.032;2023-04-03T04:06:10;4.07;;;2.97;;
13469;SDS011;6807;48.682;9.032;2023-04-03T04:08:38;3.28;;;2.97;;
13469;SDS011;6807;48.682;9.032;2023-04-03T04:11:06;5.30;;;2.80;;
13469;SDS011;6807;48.682;9.032;2023-04-03T04:13:33;3.30;;;2.75;;
13469;SDS011;6807;48.682;9.032;2023-04-03T04:16:00;5.05;;;3.10;;
13469;SDS011;6807;48.682;9.032;2023-04-03T04:18:28;3.25;;;2.90;;
13469;SDS011;6807;48.682;9.032;2023-04-03T04:20:55;4.28;;;2.72;;
13469;SDS011;6807;48.682;9.032;2023-04-03T04:23:22;3.20;;;2.90;;
13469;SDS011;6807;48.682;9.032;2023-04-03T04:25:51;3.63;;;3.28;;
13469;SDS011;6807;48.682;9.032;2023-04-03T04:28:18;3.13;;;2.40;;
13469;SDS011;6807;48.682;9.032;2023-04-03T04:30:45;4.13;;;2.83;;
13469;SDS011;6807;48.682;9.032;2023-04-03T04:33:13;2.83;;;2.60;;
13469;SDS011;6807;48.682;9.032;2023-04-03T04:35:41;3.47;;;3.10;;
13469;SDS011;6807;48.682;9.032;2023-04-03T04:38:08;3.40;;;3.10;;
13469;SDS011;6807;48.682;9.032;2023-04-03T04:40:36;3.13;;;2.65;;
13469;SDS011;6807;48.682;9.032;2023-04-03T04:43:05;2.95;;;2.53;;
13469;SDS011;6807;48.682;9.032;2023-04-03T04:45:32;3.65;;;3.00;;
13469;SDS011;6807;48.682;9.032;2023-04-03T04:48:01;4.95;;;3.53;;
13469;SDS011;6807;48.682;9.032;2023-04-03T04:50:28;3.55;;;2.92;;
13469;SDS011;6807;48.682;9.032;2023-04-03T04:52:55;3.42;;;3.13;;
13469;SDS011;6807;48.682;9.032;2023-04-03T04:55:22;3.38;;;3.08;;
13469;SDS011;6807;48.682;9.032;2023-04-03T04:57:51;3.53;;;2.90;;
13469;SDS011;6807;48.682;9.032;2023-04-03T05:00:20;3.72;;;3.10;;
13469;SDS011;6807;48.682;9.032;2023-04-03T05:02:49;4.88;;;3.50;;
13469;SDS011;6807;48.682;9.032;2023-04-03T05:05:17;3.38;;;2.97;;
13469;SDS011;6807;48.682;9.032;2023-04-03T05:07:44;3.78;;;3.00;;
13469;SDS011;6807;48.682;9.032;2023-04-03T05:10:11;3.20;;;2.90;;
13469;SDS011;6807;48.682;9.032;2023-04-03T05:12:38;4.50;;;3.28;;
13469;SDS011;6807;48.682;9.032;2023-04-03T05:15:07;4.90;;;3.10;;
13469;SDS011;6807;48.682;9.032;2023-04-03T05:17:35;3.15;;;2.85;;
13469;SDS011;6807;48.682;9.032;2023-04-03T05:20:03;2.75;;;2.40;;
13469;SDS011;6807;48.682;9.032;2023-04-03T05:22:30;3.30;;;2.72;;
13469;SDS011;6807;48.682;9.032;2023-04-03T05:24:58;3.42;;;2.50;;
13469;SDS011;6807;48.682;9.032;2023-04-03T05:27:25;3.00;;;2.70;;
13469;SDS011;6807;48.682;9.032;2023-04-03T05:29:53;2.55;;;2.33;;
13469;SDS011;6807;48.682;9.032;2023-04-03T05:32:21;2.72;;;2.42;;
13469;SDS011;6807;48.682;9.032;2023-04-03T05:34:49;5.30;;;2.50;;
13469;SDS011;6807;48.682;9.032;2023-04-03T05:37:17;2.95;;;2.67;;
13469;SDS011;6807;48.682;9.032;2023-04-03T05:39:44;6.40;;;2.65;;
13469;SDS011;6807;48.682;9.032;2023-04-03T05:42:11;2.47;;;2.15;;
13469;SDS011;6807;48.682;9.032;2023-04-03T05:44:39;4.28;;;2.33;;
13469;SDS011;6807;48.682;9.032;2023-04-03T05:47:06;2.65;;;2.45;;
13469;SDS011;6807;48.682;9.032;2023-04-03T05:49:34;3.13;;;2.42;;
13469;SDS011;6807;48.682;9.032;2023-04-03T05:52:08;2.75;;;2.38;;
13469;SDS011;6807;48.682;9.032;2023-04-03T05:54:39;2.17;;;1.95;;
13469;SDS011;6807;48.682;9.032;2023-04-03T05:57:08;3.58;;;2.45;;
13469;SDS011;6807;48.682;9.032;2023-04-03T05:59:35;2.75;;;2.40;;
13469;SDS011;6807;48.682;9.032;2023-04-03T06:02:02;2.30;;;2.08;;
13469;SDS011;6807;48.682;9.032;2023-04-03T06:04:29;2.53;;;2.33;;
13469;SDS011;6807;48.682;9.032;2023-04-03T06:06:57;2.50;;;2.30;;
13469;SDS011;6807;48.682;9.032;2023-04-03T06:09:26;2.85;;;2.33;;
13469;SDS011;6807;48.682;9.032;2023-04-03T06:11:54;2.72;;;1.88;;
13469;SDS011;6807;48.682;9.032;2023-04-03T06:14:23;2.70;;;2.40;;
13469;SDS011;6807;48.682;9.032;2023-04-03T06:16:51;2.55;;;2.35;;
13469;SDS011;6807;48.682;9.032;2023-04-03T06:19:19;5.22;;;2.80;;
13469;SDS011;6807;48.682;9.032;2023-04-03T06:21:46;3.33;;;2.70;;
13469;SDS011;6807;48.682;9.032;2023-04-03T06:24:15;3.65;;;2.53;;
13469;SDS011;6807;48.682;9.032;2023-04-03T06:26:43;2.75;;;2.53;;
13469;SDS011;6807;48.682;9.032;2023-04-03T06:29:11;2.92;;;2.67;;
13469;SDS011;6807;48.682;9.032;2023-04-03T06:31:41;3.67;;;2.60;;
13469;SDS011;6807;48.682;9.032;2023-04-03T06:34:08;2.50;;;2.15;;
13469;SDS011;6807;48.682;9.032;2023-04-03T06:36:36;2.70;;;2.30;;
13469;SDS011;6807;48.682;9.032;2023-04-03T06:39:03;3.20;;;2.80;;
13469;SDS011;6807;48.682;9.032;2023-04-03T06:41:32;2.38;;;2.17;;
13469;SDS011;6807;48.682;9.032;2023-04-03T06:44:01;3.13;;;2.58;;
13469;SDS011;6807;48.682;9.032;2023-04-03T06:46:28;3.85;;;2.55;;
13469;SDS011;6807;48.682;9.032;2023-04-03T06:48:55;3.17;;;2.67;;
13469;SDS011;6807;48.682;9.032;2023-04-03T06:51:23;4.07;;;2.60;;
13469;SDS011;6807;48.682;9.032;2023-04-03T06:53:52;3.45;;;2.20;;
13469;SDS011;6807;48.682;9.032;2023-04-03T06:56:19;3.35;;;2.55;;
13469;SDS011;6807;48.682;9.032;2023-04-03T06:58:47;2.40;;;2.25;;
13469;SDS011;6807;48.682;9.032;2023-04-03T07:01:18;2.83;;;2.40;;
13469;SDS011;6807;48.682;9.032;2023-04-03T07:03:46;2.25;;;2.03;;
13469;SDS011;6807;48.682;9.032;2023-04-03T07:06:16;2.60;;;2.40;;
13469;SDS011;6807;48.682;9.032;2023-04-03T07:08:44;4.55;;;2.80;;
13469;SDS011;6807;48.682;9.032;2023-04-03T07:11:12;2.67;;;2.42;;
13469;SDS011;6807;48.682;9.032;2023-04-03T07:13:40;3.13;;;2.40;;
13469;SDS011;6807;48.682;9.032;2023-04-03T07:16:10;2.58;;;2.38;;
13469;SDS011;6807;48.682;9.032;2023-04-03T07:18:39;3.33;;;2.92;;
13469;SDS011;6807;48.682;9.032;2023-04-03T07:21:06;5.03;;;2.70;;
13469;SDS011;6807;48.682;9.032;2023-04-03T07:23:34;4.60;;;2.72;;
13469;SDS011;6807;48.682;9.032;2023-04-03T07:26:02;4.70;;;2.47;;
13469;SDS011;6807;48.682;9.032;2023-04-03T07:28:32;3.92;;;2.45;;
13469;SDS011;6807;48.682;9.032;2023-04-03T07:31:00;4.85;;;2.60;;
13469;SDS011;6807;48.682;9.032;2023-04-03T07:33:28;2.60;;;2.10;;
13469;SDS011;6807;48.682;9.032;2023-04-03T07:35:57;2.78;;;2.13;;
13469;SDS011;6807;48.682;9.032;2023-04-03T07:38:25;3.10;;;2.10;;
13469;SDS011;6807;48.682;9.032;2023-04-03T07:40:52;2.58;;;2.38;;
13469;SDS011;6807;48.682;9.032;2023-04-03T07:43:20;3.67;;;2.53;;
13469;SDS011;6807;48.682;9.032;2023-04-03T07:45:50;3.45;;;2.00;;
13469;SDS011;6807;48.682;9.032;2023-04-03T07:48:17;3.08;;;2.63;;
13469;SDS011;6807;48.682;9.032;2023-04-03T07:50:45;2.95;;;2.58;;
13469;SDS011;6807;48.682;9.032;2023-04-03T07:53:13;2.75;;;2.55;;
13469;SDS011;6807;48.682;9.032;2023-04-03T07:55:41;2.35;;;2.20;;
13469;SDS011;6807;48.682;9.032;2023-04-03T07:58:09;4.05;;;2.30;;
13469;SDS011;6807;48.682;9.032;2023-04-03T08:00:36;4.78;;;2.63;;
13469;SDS011;6807;48.682;9.032;2023-04-03T08:03:03;6.15;;;2.38;;
13469;SDS011;6807;48.682;9.032;2023-04-03T08:05:31;2.95;;;2.40;;
13469;SDS011;6807;48.682;9.032;2023-04-03T08:08:01;4.63;;;2.30;;
13469;SDS011;6807;48.682;9.032;2023-04-03T08:10:30;2.20;;;1.90;;
13469;SDS011;6807;48.682;9.032;2023-04-03T08:12:58;3.35;;;2.72;;
13469;SDS011;6807;48.682;9.032;2023-04-03T08:15:25;2.33;;;2.03;;
13469;SDS011;6807;48.682;9.032;2023-04-03T08:17:52;2.83;;;2.38;;
13469;SDS011;6807;48.682;9.032;2023-04-03T08:20:20;3.40;;;2.58;;
13469;SDS011;6807;48.682;9.032;2023-04-03T08:22:47;3.80;;;3.08;;
13469;SDS011;6807;48.682;9.032;2023-04-03T08:25:14;2.95;;;2.45;;
13469;SDS011;6807;48.682;9.032;2023-04-03T08:27:44;2.72;;;2.38;;
13469;SDS011;6807;48.682;9.032;2023-04-03T08:30:11;7.25;;;2.40;;
13469;SDS011;6807;48.682;9.032;2023-04-03T08:32:39;3.55;;;2.30;;
13469;SDS011;6807;48.682;9.032;2023-04-03T08:35:07;2.80;;;2.22;;
13469;SDS011;6807;48.682;9.032;2023-04-03T08:37:37;3.88;;;2.80;;
13469;SDS011;6807;48.682;9.032;2023-04-03T08:40:06;3.35;;;2.58;;
13469;SDS011;6807;48.682;9.032;2023-04-03T08:42:38;4.88;;;2.72;;
13469;SDS011;6807;48.682;9.032;2023-04-03T08:45:09;3.92;;;2.78;;
13469;SDS011;6807;48.682;9.032;2023-04-03T08:47:38;2.50;;;2.30;;
13469;SDS011;6807;48.682;9.032;2023-04-03T08:50:07;5.05;;;2.58;;
13469;SDS011;6807;48.682;9.032;2023-04-03T08:52:39;2.47;;;2.20;;
13469;SDS011;6807;48.682;9.032;2023-04-03T08:55:13;3.17;;;2.50;;
13469;SDS011;6807;48.682;9.032;2023-04-03T08:57:44;6.18;;;2.65;;
13469;SDS011;6807;48.682;9.032;2023-04-03T09:00:17;3.20;;;2.40;;
13469;SDS011;6807;48.682;9.032;2023-04-03T09:02:45;2.63;;;2.40;;
13469;SDS011;6807;48.682;9.032;2023-04-03T09:05:13;2.97;;;2.60;;
13469;SDS011;6807;48.682;9.032;2023-04-03T09:07:42;3.60;;;2.53;;
13469;SDS011;6807;48.682;9.032;2023-04-03T09:10:10;3.70;;;2.60;;
13469;SDS011;6807;48.682;9.032;2023-04-03T09:12:39;3.95;;;2.75;;
13469;SDS011;6807;48.682;9.032;2023-04-03T09:15:15;7.38;;;2.20;;
13469;SDS011;6807;48.682;9.032;2023-04-03T09:17:49;3.78;;;2.60;;
13469;SDS011;6807;48.682;9.032;2023-04-03T09:20:21;3.72;;;2.70;;
13469;SDS011;6807;48.682;9.032;2023-04-03T09:22:52;5.43;;;2.90;;
13469;SDS011;6807;48.682;9.032;2023-04-03T09:25:20;4.78;;;2.90;;
13469;SDS011;6807;48.682;9.032;2023-04-03T09:27:48;3.47;;;2.97;;
13469;SDS011;6807;48.682;9.032;2023-04-03T09:30:17;4.38;;;2.67;;
13469;SDS011;6807;48.682;9.032;2023-04-03T09:32:45;3.53;;;2.40;;
13469;SDS011;6807;48.682;9.032;2023-04-03T09:35:19;5.05;;;2.80;;
13469;SDS011;6807;48.682;9.032;2023-04-03T09:37:47;3.75;;;2.83;;
13469;SDS011;6807;48.682;9.032;2023-04-03T09:40:28;2.90;;;2.20;;
13469;SDS011;6807;48.682;9.032;2023-04-03T09:42:58;2.95;;;2.45;;
13469;SDS011;6807;48.682;9.032;2023-04-03T09:45:27;5.10;;;2.45;;
13469;SDS011;6807;48.682;9.032;2023-04-03T09:48:07;3.10;;;2.80;;
13469;SDS011;6807;48.682;9.032;2023-04-03T09:50:36;3.20;;;2.40;;
13469;SDS011;6807;48.682;9.032;2023-04-03T09:53:07;2.75;;;2.35;;
13469;SDS011;6807;48.682;9.032;2023-04-03T09:55:41;3.55;;;2.60;;
13469;SDS011;6807;48.682;9.032;2023-04-03T09:58:22;3.03;;;2.22;;
13469;SDS011;6807;48.682;9.032;2023-04-03T10:00:53;3.03;;;2.38;;
13469;SDS011;6807;48.682;9.032;2023-04-03T10:03:23;4.13;;;2.45;;
13469;SDS011;6807;48.682;9.032;2023-04-03T10:05:53;3.50;;;2.55;;
13469;SDS011;6807;48.682;9.032;2023-04-03T10:08:24;2.78;;;2.30;;
13469;SDS011;6807;48.682;9.032;2023-04-03T10:11:11;2.45;;;2.25;;
13469;SDS011;6807;48.682;9.032;2023-04-03T10:13:51;2.15;;;1.95;;
13469;SDS011;6807;48.682;9.032;2023-04-03T10:16:20;2.53;;;2.33;;
13469;SDS011;6807;48.682;9.032;2023-04-03T10:18:49;2.70;;;2.50;;
13469;SDS011;6807;48.682;9.032;2023-04-03T10:21:24;2.55;;;2.20;;
13469;SDS011;6807;48.682;9.032;2023-04-03T10:23:59;1.65;;;1.50;;
13469;SDS011;6807;48.682;9.032;2023-04-03T10:26:32;2.65;;;2.28;;
13469;SDS011;6807;48.682;9.032;2023-04-03T10:29:02;2.22;;;2.03;;
13469;SDS011;6807;48.682;9.032;2023-04-03T10:31:37;2.80;;;2.15;;
13469;SDS011;6807;48.682;9.032;2023-04-03T10:34:10;2.65;;;2.40;;
13469;SDS011;6807;48.682;9.032;2023-04-03T10:36:42;2.80;;;2.20;;
13469;SDS011;6807;48.682;9.032;2023-04-03T10:39:15;2.22;;;2.00;;
13469;SDS011;6807;48.682;9.032;2023-04-03T10:41:48;2.65;;;2.15;;
13469;SDS011;6807;48.682;9.032;2023-04-03T10:44:20;3.28;;;1.98;;
13469;SDS011;6807;48.682;9.032;2023-04-03T10:46:50;4.57;;;2.80;;
13469;SDS011;6807;48.682;9.032;2023-04-03T10:49:25;2.45;;;2.20;;
13469;SDS011;6807;48.682;9.032;2023-04-03T10:52:00;2.35;;;2.00;;
13469;SDS011;6807;48.682;9.032;2023-04-03T10:54:31;2.70;;;2.35;;
13469;SDS011;6807;48.682;9.032;2023-04-03T10:57:01;3.92;;;2.65;;
13469;SDS011;6807;48.682;9.032;2023-04-03T10:59:30;1.92;;;1.70;;
13469;SDS011;6807;48.682;9.032;2023-04-03T11:01:59;2.22;;;2.03;;
13469;SDS011;6807;48.682;9.032;2023-04-03T11:04:28;2.20;;;2.00;;
13469;SDS011;6807;48.682;9.032;2023-04-03T11:07:00;3.22;;;2.08;;
13469;SDS011;6807;48.682;9.032;2023-04-03T11:09:28;2.20;;;2.00;;
13469;SDS011;6807;48.682;9.032;2023-04-03T11:11:58;3.78;;;2.05;;
13469;SDS011;6807;48.682;9.032;2023-04-03T11:14:28;3.70;;;2.78;;
13469;SDS011;6807;48.682;9.032;2023-04-03T11:17:00;3.67;;;2.35;;
13469;SDS011;6807;48.682;9.032;2023-04-03T11:19:31;2.20;;;1.90;;
13469;SDS011;6807;48.682;9.032;2023-04-03T11:22:03;2.15;;;1.95;;
13469;SDS011;6807;48.682;9.032;2023-04-03T11:24:32;2.80;;;2.13;;
13469;SDS011;6807;48.682;9.032;2023-04-03T11:27:00;2.25;;;2.05;;
13469;SDS011;6807;48.682;9.032;2023-04-03T11:29:30;2.67;;;2.25;;
13469;SDS011;6807;48.682;9.032;2023-04-03T11:32:06;2.40;;;2.20;;
13469;SDS011;6807;48.682;9.032;2023-04-03T11:34:36;3.00;;;2.55;;
13469;SDS011;6807;48.682;9.032;2023-04-03T11:37:11;2.30;;;2.03;;
13469;SDS011;6807;48.682;9.032;2023-04-03T11:39:39;4.35;;;3.05;;
13469;SDS011;6807;48.682;9.032;2023-04-03T11:42:14;4.55;;;2.55;;
13469;SDS011;6807;48.682;9.032;2023-04-03T11:44:41;1.77;;;1.65;;
13469;SDS011;6807;48.682;9.032;2023-04-03T11:47:09;2.50;;;2.30;;
13469;SDS011;6807;48.682;9.032;2023-04-03T11:49:56;3.15;;;2.42;;
13469;SDS011;6807;48.682;9.032;2023-04-03T11:55:44;2.30;;;2.00;;
13469;SDS011;6807;48.682;9.032;2023-04-03T11:58:12;3.17;;;2.25;;
13469;SDS011;6807;48.682;9.032;2023-04-03T12:00:50;1.98;;;1.85;;
13469;SDS011;6807;48.682;9.032;2023-04-03T12:03:29;2.40;;;2.13;;
13469;SDS011;6807;48.682;9.032;2023-04-03T12:05:57;3.13;;;2.20;;
13469;SDS011;6807;48.682;9.032;2023-04-03T12:08:25;4.43;;;2.50;;
13469;SDS011;6807;48.682;9.032;2023-04-03T12:13:40;2.80;;;2.28;;
13469;SDS011;6807;48.682;9.032;2023-04-03T12:16:09;2.42;;;1.95;;
13469;SDS011;6807;48.682;9.032;2023-04-03T12:18:53;3.00;;;2.38;;
13469;SDS011;6807;48.682;9.032;2023-04-03T12:21:22;2.00;;;1.85;;
13469;SDS011;6807;48.682;9.032;2023-04-03T12:24:00;4.93;;;1.77;;
13469;SDS011;6807;48.682;9.032;2023-04-03T12:26:28;2.30;;;2.08;;
13469;SDS011;6807;48.682;9.032;2023-04-03T12:28:58;1.83;;;1.73;;
13469;SDS011;6807;48.682;9.032;2023-04-03T12:31:32;3.60;;;2.20;;
13469;SDS011;6807;48.682;9.032;2023-04-03T12:34:10;2.60;;;1.90;;
13469;SDS011;6807;48.682;9.032;2023-04-03T12:36:42;2.25;;;1.90;;
13469;SDS011;6807;48.682;9.032;2023-04-03T12:39:17;2.63;;;2.00;;
13469;SDS011;6807;48.682;9.032;2023-04-03T12:41:50;2.50;;;2.00;;
13469;SDS011;6807;48.682;9.032;2023-04-03T12:44:23;3.28;;;2.03;;
13469;SDS011;6807;48.682;9.032;2023-04-03T12:46:53;3.17;;;2.30;;
13469;SDS011;6807;48.682;9.032;2023-04-03T12:49:28;2.25;;;2.10;;
13469;SDS011;6807;48.682;9.032;2023-04-03T12:51:57;2.40;;;1.85;;
13469;SDS011;6807;48.682;9.032;2023-04-03T12:54:26;2.83;;;1.88;;
13469;SDS011;6807;48.682;9.032;2023-04-03T12:57:08;4.07;;;2.20;;
13469;SDS011;6807;48.682;9.032;2023-04-03T12:59:36;3.08;;;2.25;;
13469;SDS011;6807;48.682;9.032;2023-04-03T13:02:08;3.40;;;2.42;;
13469;SDS011;6807;48.682;9.032;2023-04-03T13:04:37;4.07;;;2.47;;
13469;SDS011;6807;48.682;9.032;2023-04-03T13:07:05;2.92;;;1.95;;
13469;SDS011;6807;48.682;9.032;2023-04-03T13:09:47;5.10;;;1.90;;
13469;SDS011;6807;48.682;9.032;2023-04-03T13:12:21;3.72;;;1.90;;
13469;SDS011;6807;48.682;9.032;2023-04-03T13:14:53;2.15;;;1.83;;
13469;SDS011;6807;48.682;9.032;2023-04-03T13:17:21;2.38;;;2.10;;
13469;SDS011;6807;48.682;9.032;2023-04-03T13:19:49;2.97;;;2.20;;
13469;SDS011;6807;48.682;9.032;2023-04-03T13:22:24;4.30;;;1.85;;
13469;SDS011;6807;48.682;9.032;2023-04-03T13:24:54;2.30;;;2.00;;
13469;SDS011;6807;48.682;9.032;2023-04-03T13:27:22;3.85;;;2.10;;
13469;SDS011;6807;48.682;9.032;2023-04-03T13:29:50;3.42;;;2.10;;
13469;SDS011;6807;48.682;9.032;2023-04-03T13:32:20;2.25;;;2.05;;
13469;SDS011;6807;48.682;9.032;2023-04-03T13:34:48;2.28;;;2.05;;
13469;SDS011;6807;48.682;9.032;2023-04-03T13:37:19;5.72;;;2.00;;
13469;SDS011;6807;48.682;9.032;2023-04-03T13:39:56;3.08;;;1.73;;
13469;SDS011;6807;48.682;9.032;2023-04-03T13:42:24;3.50;;;2.08;;
13469;SDS011;6807;48.682;9.032;2023-04-03T13:45:06;2.40;;;1.83;;
13469;SDS011;6807;48.682;9.032;2023-04-03T13:47:39;7.07;;;2.10;;
13469;SDS011;6807;48.682;9.032;2023-04-03T13:50:13;2.38;;;2.00;;
13469;SDS011;6807;48.682;9.032;2023-04-03T13:52:42;2.28;;;1.88;;
13469;SDS011;6807;48.682;9.032;2023-04-03T13:55:21;2.58;;;2.17;;
13469;SDS011;6807;48.682;9.032;2023-04-03T13:57:50;3.42;;;2.08;;
13469;SDS011;6807;48.682;9.032;2023-04-03T14:03:16;2.10;;;1.90;;
13469;SDS011;6807;48.682;9.032;2023-04-03T14:05:45;2.20;;;2.00;;
13469;SDS011;6807;48.682;9.032;2023-04-03T14:08:12;2.30;;;2.10;;
13469;SDS011;6807;48.682;9.032;2023-04-03T14:10:40;3.75;;;2.53;;
13469;SDS011;6807;48.682;9.032;2023-04-03T14:13:08;2.88;;;2.10;;
13469;SDS011;6807;48.682;9.032;2023-04-03T14:15:36;2.25;;;1.88;;
13469;SDS011;6807;48.682;9.032;2023-04-03T14:18:03;2.45;;;1.90;;
13469;SDS011;6807;48.682;9.032;2023-04-03T14:20:32;1.80;;;1.70;;
13469;SDS011;6807;48.682;9.032;2023-04-03T14:22:59;2.65;;;1.95;;
13469;SDS011;6807;48.682;9.032;2023-04-03T14:25:26;3.63;;;2.10;;
13469;SDS011;6807;48.682;9.032;2023-04-03T14:27:53;2.35;;;2.15;;
13469;SDS011;6807;48.682;9.032;2023-04-03T14:30:22;2.10;;;1.92;;
13469;SDS011;6807;48.682;9.032;2023-04-03T14:32:50;2.70;;;2.10;;
13469;SDS011;6807;48.682;9.032;2023-04-03T14:35:18;3.88;;;2.30;;
13469;SDS011;6807;48.682;9.032;2023-04-03T14:37:47;3.63;;;2.35;;
13469;SDS011;6807;48.682;9.032;2023-04-03T14:40:15;3.53;;;2.33;;
13469;SDS011;6807;48.682;9.032;2023-04-03T14:42:43;3.05;;;1.90;;
13469;SDS011;6807;48.682;9.032;2023-04-03T14:45:12;2.10;;;1.90;;
13469;SDS011;6807;48.682;9.032;2023-04-03T14:47:41;2.20;;;2.03;;
13469;SDS011;6807;48.682;9.032;2023-04-03T14:50:11;3.75;;;2.10;;
13469;SDS011;6807;48.682;9.032;2023-04-03T14:52:39;2.13;;;2.00;;
13469;SDS011;6807;48.682;9.032;2023-04-03T14:55:08;8.77;;;2.55;;
13469;SDS011;6807;48.682;9.032;2023-04-03T14:57:35;4.85;;;2.10;;
13469;SDS011;6807;48.682;9.032;2023-04-03T15:00:06;2.72;;;2.05;;
13469;SDS011;6807;48.682;9.032;2023-04-03T15:02:34;2.58;;;2.28;;
13469;SDS011;6807;48.682;9.032;2023-04-03T15:05:02;3.45;;;2.20;;
13469;SDS011;6807;48.682;9.032;2023-04-03T15:07:30;3.15;;;2.50;;
13469;SDS011;6807;48.682;9.032;2023-04-03T15:09:58;3.33;;;2.03;;
13469;SDS011;6807;48.682;9.032;2023-04-03T15:12:27;2.38;;;2.00;;
13469;SDS011;6807;48.682;9.032;2023-04-03T15:14:54;3.00;;;2.30;;
13469;SDS011;6807;48.682;9.032;2023-04-03T15:17:22;5.22;;;2.35;;
13469;SDS011;6807;48.682;9.032;2023-04-03T15:19:49;3.53;;;2.42;;
13469;SDS011;6807;48.682;9.032;2023-04-03T15:22:17;3.47;;;2.20;;
13469;SDS011;6807;48.682;9.032;2023-04-03T15:24:45;2.30;;;2.10;;